Time;durP1;ratioP1;P1;durP2;ratioP2;P2;SDS_P1;SDS_P2;PMS_P1;PMS_P2;Temp;Humidity;BMP_temperature;BMP_pressure;BME280_temperature;BME280_humidity;BME280_pressure;Samples;Min_cycle;Max_cycle;Signal;HPM_P1;HPM_P2
2022/05/13 00:01:50;;;;;;;3.40;2.72;;;;;;;;;;5020925;28;20029;-48
2022/05/13 00:04:17;;;;;;;3.10;2.28;;;;;;;;;;5031330;28;20052;-56
2022/05/13 00:06:42;;;;;;;3.72;2.58;;;;;;;;;;5031445;28;20092;-50
2022/05/13 00:09:09;;;;;;;2.70;2.47;;;;;;;;;;5031405;28;20466;-50
2022/05/13 00:11:34;;;;;;;3.25;2.90;;;;;;;;;;5031115;28;20033;-47
2022/05/13 00:14:01;;;;;;;3.92;2.60;;;;;;;;;;5031241;28;20075;-51
2022/05/13 00:16:27;;;;;;;3.15;2.88;;;;;;;;;;5022308;28;20037;-51
2022/05/13 00:18:53;;;;;;;3.97;2.75;;;;;;;;;;5031792;28;20030;-50
2022/05/13 00:21:19;;;;;;;3.75;2.83;;;;;;;;;;5031109;28;20105;-56
2022/05/13 00:23:45;;;;;;;2.70;2.40;;;;;;;;;;5031231;28;20041;-49
2022/05/13 00:26:11;;;;;;;6.38;2.95;;;;;;;;;;5030717;28;20029;-47
2022/05/13 00:28:37;;;;;;;4.47;2.95;;;;;;;;;;5030769;28;20163;-48
2022/05/13 00:31:04;;;;;;;3.72;2.40;;;;;;;;;;5032020;28;20159;-48
2022/05/13 00:33:32;;;;;;;2.92;2.58;;;;;;;;;;5029705;28;20061;-47
2022/05/13 00:35:58;;;;;;;3.92;2.60;;;;;;;;;;5032570;28;20042;-47
2022/05/13 00:38:25;;;;;;;5.57;2.67;;;;;;;;;;5033948;28;20034;-53
2022/05/13 00:40:51;;;;;;;2.70;2.35;;;;;;;;;;5035072;28;20411;-47
2022/05/13 00:43:36;;;;;;;3.28;2.97;;;;;;;;;;5034619;28;20169;-55
2022/05/13 00:46:03;;;;;;;4.45;2.88;;;;;;;;;;5034730;28;20044;-47
2022/05/13 00:48:29;;;;;;;3.92;2.80;;;;;;;;;;5033732;28;20116;-47
2022/05/13 00:50:56;;;;;;;2.67;2.47;;;;;;;;;;5034777;28;20037;-47
2022/05/13 00:53:22;;;;;;;3.42;2.90;;;;;;;;;;5034170;28;20521;-47
2022/05/13 00:55:48;;;;;;;4.25;2.63;;;;;;;;;;5034523;28;20104;-46
2022/05/13 00:58:20;;;;;;;4.53;2.70;;;;;;;;;;5034461;28;20109;-47
2022/05/13 01:00:47;;;;;;;3.83;2.40;;;;;;;;;;5035629;28;20028;-48
2022/05/13 01:03:14;;;;;;;4.90;2.75;;;;;;;;;;5035429;28;20071;-47
2022/05/13 01:05:45;;;;;;;2.50;2.10;;;;;;;;;;5033495;28;20025;-48
2022/05/13 01:08:11;;;;;;;3.17;2.88;;;;;;;;;;5034337;28;20459;-47
2022/05/13 01:10:38;;;;;;;4.18;3.00;;;;;;;;;;5033457;28;20041;-47
2022/05/13 01:13:07;;;;;;;4.15;2.72;;;;;;;;;;5034618;28;20401;-46
2022/05/13 01:15:35;;;;;;;4.43;2.85;;;;;;;;;;5033118;28;20105;-47
2022/05/13 01:18:07;;;;;;;4.47;2.80;;;;;;;;;;5034312;28;20029;-47
2022/05/13 01:20:35;;;;;;;3.88;3.05;;;;;;;;;;5033725;28;20088;-47
2022/05/13 01:23:03;;;;;;;4.28;2.72;;;;;;;;;;5034080;28;20026;-48
2022/05/13 01:25:33;;;;;;;4.10;2.78;;;;;;;;;;5033080;28;20026;-48
2022/05/13 01:28:06;;;;;;;4.15;2.92;;;;;;;;;;5034004;28;20040;-47
2022/05/13 01:30:32;;;;;;;3.42;2.75;;;;;;;;;;5033169;28;20041;-47
2022/05/13 01:32:58;;;;;;;4.90;3.20;;;;;;;;;;5033464;28;20033;-49
2022/05/13 01:35:24;;;;;;;4.32;3.13;;;;;;;;;;5033208;28;20056;-52
2022/05/13 01:37:50;;;;;;;5.30;2.70;;;;;;;;;;5034190;28;20116;-48
2022/05/13 01:40:16;;;;;;;4.10;3.10;;;;;;;;;;5033423;28;20045;-47
2022/05/13 01:42:43;;;;;;;5.63;2.97;;;;;;;;;;5033098;28;20131;-51
2022/05/13 01:45:10;;;;;;;6.03;3.05;;;;;;;;;;5033808;28;20079;-49
2022/05/13 01:47:37;;;;;;;3.42;2.85;;;;;;;;;;5032183;28;20072;-48
2022/05/13 01:50:03;;;;;;;3.53;2.60;;;;;;;;;;5033895;28;20022;-48
2022/05/13 01:52:29;;;;;;;3.80;3.40;;;;;;;;;;5033028;28;20037;-50
2022/05/13 01:54:55;;;;;;;3.10;2.40;;;;;;;;;;5033341;28;20043;-47
2022/05/13 01:57:21;;;;;;;3.05;2.45;;;;;;;;;;5033366;28;20112;-56
2022/05/13 01:59:47;;;;;;;3.63;2.83;;;;;;;;;;5032178;28;20029;-49
2022/05/13 02:02:13;;;;;;;3.72;3.05;;;;;;;;;;5033239;28;20022;-48
2022/05/13 02:04:39;;;;;;;4.60;2.63;;;;;;;;;;5032181;28;20037;-48
2022/05/13 02:07:05;;;;;;;3.10;2.60;;;;;;;;;;5033786;28;20045;-48
2022/05/13 02:09:31;;;;;;;4.55;2.55;;;;;;;;;;5032682;28;20112;-48
2022/05/13 02:11:58;;;;;;;3.92;2.60;;;;;;;;;;5033135;28;20143;-48
2022/05/13 02:14:23;;;;;;;3.67;3.15;;;;;;;;;;5032625;28;20049;-54
2022/05/13 02:16:49;;;;;;;5.40;2.60;;;;;;;;;;5032264;28;20049;-48
2022/05/13 02:19:17;;;;;;;4.55;2.85;;;;;;;;;;5033429;28;20474;-48
2022/05/13 02:21:43;;;;;;;5.30;3.38;;;;;;;;;;5032222;28;20478;-51
2022/05/13 02:24:09;;;;;;;4.90;2.65;;;;;;;;;;5032991;28;20026;-47
2022/05/13 02:26:36;;;;;;;4.00;2.92;;;;;;;;;;5032231;28;20041;-47
2022/05/13 02:29:02;;;;;;;4.63;2.63;;;;;;;;;;5032859;28;20113;-50
2022/05/13 02:31:31;;;;;;;3.55;2.72;;;;;;;;;;5032185;28;20362;-48
2022/05/13 02:33:58;;;;;;;5.43;2.60;;;;;;;;;;5031425;28;20025;-49
2022/05/13 02:36:24;;;;;;;6.72;3.00;;;;;;;;;;5032384;28;20501;-55
2022/05/13 02:38:50;;;;;;;4.20;2.97;;;;;;;;;;5032315;28;20128;-47
2022/05/13 02:41:16;;;;;;;3.88;3.03;;;;;;;;;;5032842;28;20036;-47
2022/05/13 02:43:45;;;;;;;6.03;2.97;;;;;;;;;;5031638;28;20229;-48
2022/05/13 02:46:11;;;;;;;4.72;2.30;;;;;;;;;;5032554;28;20025;-48
2022/05/13 02:48:38;;;;;;;4.25;2.50;;;;;;;;;;5031900;28;20083;-47
2022/05/13 02:51:04;;;;;;;4.32;2.70;;;;;;;;;;5032548;28;20033;-47
2022/05/13 02:53:30;;;;;;;4.07;2.83;;;;;;;;;;5031329;28;20025;-49
2022/05/13 02:55:56;;;;;;;4.35;2.83;;;;;;;;;;5033013;28;20067;-50
2022/05/13 02:58:22;;;;;;;3.97;2.70;;;;;;;;;;5032210;28;20030;-47
2022/05/13 03:00:48;;;;;;;4.00;2.47;;;;;;;;;;5031739;28;20025;-47
2022/05/13 03:03:14;;;;;;;3.40;2.72;;;;;;;;;;5032138;28;20025;-49
2022/05/13 03:05:41;;;;;;;3.95;2.70;;;;;;;;;;5031480;28;20470;-47
2022/05/13 03:08:07;;;;;;;7.70;2.72;;;;;;;;;;5032285;28;20041;-47
2022/05/13 03:10:35;;;;;;;6.97;2.47;;;;;;;;;;5031712;28;20359;-48
2022/05/13 03:13:01;;;;;;;3.40;2.47;;;;;;;;;;5032259;28;20056;-47
2022/05/13 03:15:28;;;;;;;4.63;2.63;;;;;;;;;;5031895;28;20033;-57
2022/05/13 03:17:55;;;;;;;3.97;2.20;;;;;;;;;;5031915;28;20037;-47
2022/05/13 03:20:21;;;;;;;3.35;2.15;;;;;;;;;;5031869;28;20475;-51
2022/05/13 03:22:48;;;;;;;2.90;2.35;;;;;;;;;;5031238;28;20478;-47
2022/05/13 03:25:14;;;;;;;4.47;2.65;;;;;;;;;;5032326;28;20029;-48
2022/05/13 03:27:41;;;;;;;3.67;2.67;;;;;;;;;;5031157;28;20463;-47
2022/05/13 03:30:08;;;;;;;4.43;2.60;;;;;;;;;;5031987;28;20048;-52
2022/05/13 03:32:34;;;;;;;3.42;2.25;;;;;;;;;;5031179;28;20374;-47
2022/05/13 03:35:00;;;;;;;4.57;2.83;;;;;;;;;;5028912;28;20029;-47
2022/05/13 03:37:26;;;;;;;3.42;2.28;;;;;;;;;;5031985;28;20029;-56
2022/05/13 03:39:52;;;;;;;6.07;2.47;;;;;;;;;;5031561;28;20123;-47
2022/05/13 03:42:20;;;;;;;4.32;2.25;;;;;;;;;;5031788;28;20469;-46
2022/05/13 03:44:46;;;;;;;5.05;2.33;;;;;;;;;;5031126;28;20033;-47
2022/05/13 03:47:12;;;;;;;3.17;2.20;;;;;;;;;;5031893;28;20022;-47
2022/05/13 03:49:38;;;;;;;2.83;2.38;;;;;;;;;;5031193;28;20378;-47
2022/05/13 03:52:04;;;;;;;3.75;2.40;;;;;;;;;;5031278;28;20076;-47
2022/05/13 03:54:30;;;;;;;3.40;2.20;;;;;;;;;;5031125;28;20037;-55
2022/05/13 03:56:56;;;;;;;6.05;2.63;;;;;;;;;;5031530;28;20033;-48
2022/05/13 03:59:22;;;;;;;3.25;2.22;;;;;;;;;;5031806;28;20061;-47
2022/05/13 04:01:48;;;;;;;3.08;2.17;;;;;;;;;;5030632;28;20025;-48
2022/05/13 04:04:20;;;;;;;3.38;2.20;;;;;;;;;;5031625;28;20029;-48
2022/05/13 04:09:31;;;;;;;3.08;1.98;;;;;;;;;;5025822;28;20044;-55
2022/05/13 04:17:26;;;;;;;3.08;2.25;;;;;;;;;;5034958;28;20028;-50
2022/05/13 04:19:52;;;;;;;4.25;2.40;;;;;;;;;;5034858;28;20021;-48
2022/05/13 04:22:17;;;;;;;4.68;2.50;;;;;;;;;;5035561;28;20398;-50
2022/05/13 04:24:43;;;;;;;3.97;2.20;;;;;;;;;;5034662;28;20025;-48
2022/05/13 04:27:09;;;;;;;4.18;2.35;;;;;;;;;;5034627;28;20032;-50
2022/05/13 04:29:37;;;;;;;3.28;1.92;;;;;;;;;;5034268;28;20382;-49
2022/05/13 04:32:03;;;;;;;4.55;2.50;;;;;;;;;;5035258;28;20030;-47
2022/05/13 04:34:29;;;;;;;6.53;2.42;;;;;;;;;;5034404;28;20025;-55
2022/05/13 04:36:55;;;;;;;3.33;2.60;;;;;;;;;;5034563;28;20473;-49
2022/05/13 04:39:21;;;;;;;4.38;2.22;;;;;;;;;;5035105;28;20103;-48
2022/05/13 04:44:32;;;;;;;3.83;2.80;;;;;;;;;;5034291;28;20033;-54
2022/05/13 04:46:58;;;;;;;2.50;2.03;;;;;;;;;;5034410;28;20034;-52
2022/05/13 04:49:24;;;;;;;4.15;1.90;;;;;;;;;;5034874;28;20083;-46
2022/05/13 04:51:50;;;;;;;2.30;1.90;;;;;;;;;;5034010;28;20065;-50
2022/05/13 04:54:16;;;;;;;3.90;2.67;;;;;;;;;;5034898;28;20013;-47
2022/05/13 04:56:42;;;;;;;4.35;2.58;;;;;;;;;;5033196;28;20108;-48
2022/05/13 04:59:08;;;;;;;3.08;2.10;;;;;;;;;;5034670;28;20026;-47
2022/05/13 05:01:34;;;;;;;2.78;2.28;;;;;;;;;;5034271;28;20456;-57
2022/05/13 05:04:00;;;;;;;4.68;2.53;;;;;;;;;;5034752;28;20109;-49
2022/05/13 05:06:26;;;;;;;4.57;2.40;;;;;;;;;;5034435;28;20366;-49
2022/05/13 05:08:53;;;;;;;5.13;2.20;;;;;;;;;;5033690;28;20301;-49
2022/05/13 05:11:19;;;;;;;3.70;2.35;;;;;;;;;;5034313;28;20025;-47
2022/05/13 05:13:47;;;;;;;5.78;2.53;;;;;;;;;;5033473;28;20037;-48
2022/05/13 05:16:15;;;;;;;2.38;1.92;;;;;;;;;;5033967;28;20017;-50
2022/05/13 05:18:41;;;;;;;3.45;2.47;;;;;;;;;;5033203;28;20506;-50
2022/05/13 05:21:08;;;;;;;2.65;2.22;;;;;;;;;;5033811;28;20025;-47
2022/05/13 05:23:35;;;;;;;5.10;2.15;;;;;;;;;;5030127;28;20041;-55
2022/05/13 05:26:02;;;;;;;6.15;2.08;;;;;;;;;;5033565;28;20028;-47
2022/05/13 05:28:28;;;;;;;3.05;1.65;;;;;;;;;;5033788;28;20120;-48
2022/05/13 05:30:55;;;;;;;4.82;2.38;;;;;;;;;;5032621;28;20025;-48
2022/05/13 05:33:21;;;;;;;3.00;2.30;;;;;;;;;;5033364;28;20029;-48
2022/05/13 05:35:47;;;;;;;3.33;2.30;;;;;;;;;;5031734;28;20026;-52
2022/05/13 05:38:13;;;;;;;6.47;2.08;;;;;;;;;;5033856;28;21355;-47
2022/05/13 05:40:40;;;;;;;4.55;2.90;;;;;;;;;;5033211;28;20051;-50
2022/05/13 05:43:07;;;;;;;2.65;2.15;;;;;;;;;;5033923;28;20026;-48
2022/05/13 05:45:34;;;;;;;4.10;2.25;;;;;;;;;;5033332;28;20068;-50
2022/05/13 05:48:00;;;;;;;3.47;1.88;;;;;;;;;;5033188;28;20116;-47
2022/05/13 05:50:26;;;;;;;3.85;1.90;;;;;;;;;;5033331;28;20446;-49
2022/05/13 05:52:52;;;;;;;2.42;1.92;;;;;;;;;;5032709;28;20386;-47
2022/05/13 05:58:07;;;;;;;4.10;2.45;;;;;;;;;;5033385;28;20091;-48
2022/05/13 06:00:35;;;;;;;3.15;1.80;;;;;;;;;;5032730;28;20406;-47
2022/05/13 06:03:01;;;;;;;4.13;2.25;;;;;;;;;;5032675;28;20109;-47
2022/05/13 06:05:27;;;;;;;5.55;2.33;;;;;;;;;;5033478;28;20474;-47
2022/05/13 06:07:55;;;;;;;4.53;1.98;;;;;;;;;;5032484;28;20033;-48
2022/05/13 06:10:21;;;;;;;8.20;2.10;;;;;;;;;;5033244;28;20026;-46
2022/05/13 06:12:47;;;;;;;5.57;1.67;;;;;;;;;;5032410;28;20021;-47
2022/05/13 06:15:13;;;;;;;3.90;2.10;;;;;;;;;;5033358;28;20028;-47
2022/05/13 06:17:43;;;;;;;2.30;1.52;;;;;;;;;;5031987;28;20014;-50
2022/05/13 06:20:09;;;;;;;3.67;1.98;;;;;;;;;;5032760;28;20034;-48
2022/05/13 06:22:35;;;;;;;7.47;2.42;;;;;;;;;;5037783;28;20485;-54
2022/05/13 06:25:03;;;;;;;2.13;1.70;;;;;;;;;;5032479;28;20029;-46
2022/05/13 06:27:29;;;;;;;8.02;2.50;;;;;;;;;;5031216;28;20107;-47
2022/05/13 06:29:56;;;;;;;3.55;2.00;;;;;;;;;;5030962;28;20089;-49
2022/05/13 06:32:22;;;;;;;3.17;2.10;;;;;;;;;;5013001;28;20037;-48
2022/05/13 06:34:48;;;;;;;3.60;2.30;;;;;;;;;;5029235;28;20080;-52
2022/05/13 06:37:14;;;;;;;4.72;2.78;;;;;;;;;;5032880;28;20043;-46
2022/05/13 06:39:40;;;;;;;4.45;1.88;;;;;;;;;;5031683;28;20530;-54
2022/05/13 06:42:06;;;;;;;5.97;1.90;;;;;;;;;;5032498;28;20407;-51
2022/05/13 06:44:32;;;;;;;8.85;2.20;;;;;;;;;;5031934;28;20029;-46
2022/05/13 06:46:58;;;;;;;4.28;1.70;;;;;;;;;;5031453;28;20688;-49
2022/05/13 06:49:24;;;;;;;4.18;1.80;;;;;;;;;;5030411;28;20075;-47
2022/05/13 06:51:50;;;;;;;3.20;1.80;;;;;;;;;;5032695;28;20033;-47
2022/05/13 06:54:16;;;;;;;3.67;1.92;;;;;;;;;;5035858;28;20075;-46
2022/05/13 06:56:42;;;;;;;4.68;1.65;;;;;;;;;;5032020;28;20097;-48
2022/05/13 06:59:09;;;;;;;3.75;1.77;;;;;;;;;;5032322;28;20102;-46
2022/05/13 07:01:36;;;;;;;4.40;1.83;;;;;;;;;;5032542;28;20033;-47
2022/05/13 07:04:02;;;;;;;3.47;1.83;;;;;;;;;;5030517;28;20049;-49
2022/05/13 07:06:28;;;;;;;3.97;1.90;;;;;;;;;;5032538;28;20382;-50
2022/05/13 07:08:54;;;;;;;2.75;1.60;;;;;;;;;;5032469;28;20375;-51
2022/05/13 07:11:21;;;;;;;4.85;1.90;;;;;;;;;;5031855;28;20030;-48
2022/05/13 07:13:47;;;;;;;3.75;1.73;;;;;;;;;;5031231;28;20094;-50
2022/05/13 07:16:14;;;;;;;3.40;1.90;;;;;;;;;;5031867;28;20108;-52
2022/05/13 07:18:42;;;;;;;3.67;1.52;;;;;;;;;;5031645;28;20379;-57
2022/05/13 07:21:08;;;;;;;5.07;2.00;;;;;;;;;;5032569;28;20371;-52
2022/05/13 07:23:34;;;;;;;3.00;1.88;;;;;;;;;;5031538;28;20431;-54
2022/05/13 07:26:00;;;;;;;5.53;2.00;;;;;;;;;;5031260;28;20061;-55
2022/05/13 07:28:26;;;;;;;4.00;1.80;;;;;;;;;;5031769;28;20466;-50
2022/05/13 07:30:53;;;;;;;5.68;2.28;;;;;;;;;;5031045;28;20083;-50
2022/05/13 07:33:23;;;;;;;4.53;1.90;;;;;;;;;;5030801;28;20091;-54
2022/05/13 07:35:49;;;;;;;6.60;2.17;;;;;;;;;;5031075;28;20076;-53
2022/05/13 07:38:15;;;;;;;5.80;1.83;;;;;;;;;;5032105;28;20033;-55
2022/05/13 07:43:26;;;;;;;3.90;1.63;;;;;;;;;;5028403;28;20076;-56
2022/05/13 07:45:52;;;;;;;5.80;1.50;;;;;;;;;;5033737;28;20445;-52
2022/05/13 07:48:18;;;;;;;2.63;1.60;;;;;;;;;;5035725;28;20037;-50
2022/05/13 07:50:44;;;;;;;4.90;1.55;;;;;;;;;;5035149;28;20028;-56
2022/05/13 07:53:10;;;;;;;5.65;1.85;;;;;;;;;;5040222;28;20109;-51
2022/05/13 07:55:36;;;;;;;3.88;1.67;;;;;;;;;;5035975;28;20028;-52
2022/05/13 07:58:02;;;;;;;3.55;1.60;;;;;;;;;;5034994;28;20186;-51
2022/05/13 08:00:31;;;;;;;4.85;1.83;;;;;;;;;;5034453;28;20098;-51
2022/05/13 08:03:02;;;;;;;3.80;1.65;;;;;;;;;;5034530;28;20040;-51
2022/05/13 08:05:30;;;;;;;4.43;1.80;;;;;;;;;;5035455;28;20108;-54
2022/05/13 08:08:00;;;;;;;3.80;1.40;;;;;;;;;;5034531;28;20075;-49
2022/05/13 08:10:26;;;;;;;3.65;1.58;;;;;;;;;;5033880;28;20390;-52
2022/05/13 08:12:52;;;;;;;3.50;1.73;;;;;;;;;;5025237;28;20033;-54
2022/05/13 08:15:18;;;;;;;3.85;1.52;;;;;;;;;;5035505;28;20026;-54
2022/05/13 08:17:44;;;;;;;1.33;1.13;;;;;;;;;;5034049;28;20075;-61
2022/05/13 08:20:11;;;;;;;4.07;1.70;;;;;;;;;;5035079;28;20100;-53
2022/05/13 08:22:37;;;;;;;3.65;1.65;;;;;;;;;;5035539;28;20033;-52
2022/05/13 08:25:03;;;;;;;5.70;1.25;;;;;;;;;;5034782;28;20021;-51
2022/05/13 08:27:29;;;;;;;6.32;1.85;;;;;;;;;;5035407;28;20386;-56
2022/05/13 08:29:55;;;;;;;3.55;1.58;;;;;;;;;;5035164;28;20033;-53
2022/05/13 08:32:21;;;;;;;3.10;1.60;;;;;;;;;;5034304;28;20027;-53
2022/05/13 08:34:47;;;;;;;4.47;1.33;;;;;;;;;;5025155;28;20387;-57
2022/05/13 08:37:13;;;;;;;6.90;1.30;;;;;;;;;;5014377;28;20022;-55
2022/05/13 08:39:39;;;;;;;3.85;2.35;;;;;;;;;;5024523;28;20486;-52
2022/05/13 08:42:13;;;;;;;5.18;1.55;;;;;;;;;;5021041;28;20100;-55
2022/05/13 08:44:40;;;;;;;3.70;1.25;;;;;;;;;;5027324;28;20068;-53
2022/05/13 08:47:14;;;;;;;3.92;1.52;;;;;;;;;;5033197;28;20617;-54
2022/05/13 08:50:00;;;;;;;2.70;1.58;;;;;;;;;;5033236;28;20120;-57
2022/05/13 08:55:29;;;;;;;5.40;1.55;;;;;;;;;;5026410;28;20040;-53
2022/05/13 08:57:57;;;;;;;3.55;1.88;;;;;;;;;;5030956;28;20021;-54
2022/05/13 09:00:27;;;;;;;2.40;1.48;;;;;;;;;;5033270;28;20028;-52
2022/05/13 09:02:56;;;;;;;3.92;1.38;;;;;;;;;;5033383;28;20037;-52
2022/05/13 09:05:27;;;;;;;5.80;1.70;;;;;;;;;;5034440;28;20108;-54
2022/05/13 09:07:54;;;;;;;4.85;1.50;;;;;;;;;;5033324;28;20107;-54
2022/05/13 09:10:20;;;;;;;4.05;1.83;;;;;;;;;;5034454;28;20030;-52
2022/05/13 09:12:47;;;;;;;3.38;1.30;;;;;;;;;;5033972;28;20053;-61
2022/05/13 09:15:22;;;;;;;2.97;1.40;;;;;;;;;;5034140;28;20126;-53
2022/05/13 09:17:56;;;;;;;3.88;1.38;;;;;;;;;;5033026;28;20044;-61
2022/05/13 09:20:23;;;;;;;3.67;1.38;;;;;;;;;;5033882;28;20028;-54
2022/05/13 09:22:50;;;;;;;3.25;1.17;;;;;;;;;;5033424;28;20533;-54
2022/05/13 09:25:27;;;;;;;11.05;2.25;;;;;;;;;;5025789;28;20163;-52
2022/05/13 09:28:09;;;;;;;3.17;1.23;;;;;;;;;;5032478;28;20042;-52
2022/05/13 09:30:36;;;;;;;7.38;1.40;;;;;;;;;;5033887;28;20021;-54
2022/05/13 09:33:21;;;;;;;6.50;1.50;;;;;;;;;;5032729;28;20444;-53
2022/05/13 09:35:49;;;;;;;5.97;1.45;;;;;;;;;;5032876;28;20030;-56
2022/05/13 09:38:19;;;;;;;3.70;1.45;;;;;;;;;;5032689;28;20096;-49
2022/05/13 09:41:03;;;;;;;5.50;1.53;;;;;;;;;;5033711;28;20053;-57
2022/05/13 09:43:40;;;;;;;3.95;1.40;;;;;;;;;;5033038;28;20064;-50
2022/05/13 09:46:32;;;;;;;4.78;1.35;;;;;;;;;;5032241;28;20032;-51
2022/05/13 09:48:58;;;;;;;;;;;;;;;;;;5016669;28;20077;-56
2022/05/13 09:51:24;;;;;;;4.90;1.30;;;;;;;;;;5033209;28;20370;-52
2022/05/13 09:54:05;;;;;;;2.95;1.67;;;;;;;;;;5032525;28;20033;-57
2022/05/13 09:56:40;;;;;;;7.38;2.03;;;;;;;;;;5031749;28;20112;-51
2022/05/13 09:59:13;;;;;;;3.22;1.10;;;;;;;;;;5032157;28;20030;-51
2022/05/13 10:01:39;;;;;;;2.83;1.15;;;;;;;;;;5033440;28;20040;-50
2022/05/13 10:04:08;;;;;;;5.00;1.42;;;;;;;;;;5031942;28;20030;-54
2022/05/13 10:06:35;;;;;;;10.07;1.40;;;;;;;;;;5025404;28;20017;-52
2022/05/13 10:14:34;;;;;;;7.25;1.70;;;;;;;;;;5029034;28;20079;-48
2022/05/13 10:17:05;;;;;;;7.25;2.08;;;;;;;;;;5031422;28;20532;-50
2022/05/13 10:19:36;;;;;;;12.60;1.90;;;;;;;;;;5031372;28;20449;-51
2022/05/13 10:22:11;;;;;;;6.43;1.45;;;;;;;;;;5030831;28;20096;-52
2022/05/13 10:24:45;;;;;;;3.85;1.25;;;;;;;;;;5031583;28;20033;-50
2022/05/13 10:27:16;;;;;;;3.33;1.40;;;;;;;;;;5027338;28;20104;-48
2022/05/13 10:29:45;;;;;;;3.58;1.48;;;;;;;;;;5032628;28;20044;-49
2022/05/13 10:32:30;;;;;;;5.03;1.55;;;;;;;;;;5030598;28;20600;-50
2022/05/13 10:35:00;;;;;;;4.78;1.75;;;;;;;;;;5025509;28;20029;-48
2022/05/13 10:37:30;;;;;;;4.43;1.13;;;;;;;;;;5032086;28;20059;-48
2022/05/13 10:40:01;;;;;;;4.05;1.30;;;;;;;;;;5031990;28;20117;-48
2022/05/13 10:42:33;;;;;;;6.80;1.38;;;;;;;;;;5029539;28;20459;-49
2022/05/13 10:45:20;;;;;;;4.07;1.10;;;;;;;;;;5024756;28;20025;-53
2022/05/13 10:48:05;;;;;;;5.28;1.30;;;;;;;;;;5031422;28;20032;-54
2022/05/13 10:50:36;;;;;;;4.70;1.20;;;;;;;;;;5030974;28;20487;-50
2022/05/13 10:53:12;;;;;;;7.72;1.40;;;;;;;;;;5035273;28;20474;-52
2022/05/13 10:55:57;;;;;;;19.67;2.50;;;;;;;;;;5031999;28;20053;-50
2022/05/13 10:58:26;;;;;;;7.25;1.50;;;;;;;;;;5032034;28;20036;-52
2022/05/13 11:00:59;;;;;;;11.73;1.75;;;;;;;;;;5031126;28;20025;-58
2022/05/13 11:03:40;;;;;;;8.40;1.52;;;;;;;;;;5032031;28;20044;-53
2022/05/13 11:06:06;;;;;;;4.93;1.25;;;;;;;;;;5030959;28;20517;-54
2022/05/13 11:08:32;;;;;;;6.22;1.58;;;;;;;;;;5031649;28;20033;-51
2022/05/13 11:11:03;;;;;;;4.85;1.40;;;;;;;;;;5030671;28;20406;-56
2022/05/13 11:13:51;;;;;;;3.50;1.27;;;;;;;;;;5026886;28;20112;-54
2022/05/13 11:16:36;;;;;;;7.03;1.45;;;;;;;;;;5031390;28;20118;-53
2022/05/13 11:19:07;;;;;;;3.70;1.55;;;;;;;;;;5030486;28;20364;-55
2022/05/13 11:21:52;;;;;;;4.93;1.88;;;;;;;;;;5031944;28;20182;-54
2022/05/13 11:27:28;;;;;;;5.57;1.63;;;;;;;;;;4990098;28;20034;-50
2022/05/13 11:29:59;;;;;;;4.70;1.88;;;;;;;;;;5021386;28;20049;-56
2022/05/13 11:32:31;;;;;;;3.45;1.58;;;;;;;;;;5031996;28;20021;-51
2022/05/13 11:35:03;;;;;;;5.15;1.77;;;;;;;;;;5030329;28;20486;-50
2022/05/13 11:37:33;;;;;;;5.63;2.25;;;;;;;;;;5031215;28;20036;-54
2022/05/13 11:39:59;;;;;;;3.35;1.58;;;;;;;;;;5029634;28;20462;-54
2022/05/13 11:43:26;;;;;;;7.30;1.50;;;;;;;;;;5031476;28;20053;-50
2022/05/13 11:45:41;;;;;;;6.22;3.03;;;;;;;;;;5019399;28;20033;-51
2022/05/13 11:48:11;;;;;;;4.20;1.75;;;;;;;;;;5030693;28;20037;-52
2022/05/13 11:50:37;;;;;;;6.07;1.30;;;;;;;;;;5031407;28;20057;-53
2022/05/13 11:53:03;;;;;;;6.47;2.60;;;;;;;;;;5031552;28;20029;-52
2022/05/13 11:55:45;;;;;;;4.97;1.65;;;;;;;;;;5030819;28;20068;-51
2022/05/13 11:58:29;;;;;;;2.40;1.48;;;;;;;;;;5030523;28;20037;-50
2022/05/13 12:00:55;;;;;;;5.32;2.53;;;;;;;;;;5029982;28;20040;-52
2022/05/13 12:03:22;;;;;;;3.75;1.50;;;;;;;;;;5030767;28;20025;-54
2022/05/13 12:06:00;;;;;;;3.42;2.28;;;;;;;;;;5030057;28;20430;-54
2022/05/13 12:08:30;;;;;;;3.47;1.73;;;;;;;;;;5031021;28;20038;-52
2022/05/13 12:11:03;;;;;;;5.10;2.13;;;;;;;;;;5029556;28;20029;-54
2022/05/13 12:13:35;;;;;;;4.40;1.85;;;;;;;;;;5031278;28;20026;-53
2022/05/13 12:16:11;;;;;;;5.63;1.80;;;;;;;;;;5030163;28;20029;-54
2022/05/13 12:18:55;;;;;;;12.60;1.85;;;;;;;;;;5030956;28;20072;-48
2022/05/13 12:21:21;;;;;;;4.72;1.40;;;;;;;;;;5031014;28;20032;-47
2022/05/13 12:23:50;;;;;;;5.63;2.65;;;;;;;;;;5031269;28;20029;-45
2022/05/13 12:26:21;;;;;;;6.63;1.95;;;;;;;;;;5030744;28;20022;-46
2022/05/13 12:28:56;;;;;;;8.38;1.98;;;;;;;;;;5030552;28;20075;-48
2022/05/13 12:31:44;;;;;;;8.60;2.47;;;;;;;;;;5032700;28;20108;-49
2022/05/13 12:39:57;;;;;;;5.55;1.60;;;;;;;;;;5031843;28;20501;-55
2022/05/13 12:42:37;;;;;;;2.97;1.58;;;;;;;;;;5034760;28;20028;-53
2022/05/13 12:45:04;;;;;;;2.63;1.70;;;;;;;;;;5033825;28;20378;-48
2022/05/13 12:47:32;;;;;;;3.47;1.95;;;;;;;;;;5034738;28;20040;-52
2022/05/13 12:49:59;;;;;;;5.07;1.40;;;;;;;;;;5033061;28;20116;-48
2022/05/13 12:52:26;;;;;;;4.88;2.47;;;;;;;;;;5034241;28;20026;-49
2022/05/13 12:54:53;;;;;;;2.30;1.60;;;;;;;;;;5033267;28;20029;-55
2022/05/13 12:57:22;;;;;;;4.18;1.63;;;;;;;;;;5034047;28;20022;-49
2022/05/13 12:59:50;;;;;;;4.95;2.10;;;;;;;;;;5033635;28;20108;-51
2022/05/13 13:02:17;;;;;;;3.97;2.00;;;;;;;;;;5027730;28;20064;-51
2022/05/13 13:04:51;;;;;;;2.17;1.50;;;;;;;;;;5034230;28;20033;-50
2022/05/13 13:07:20;;;;;;;4.13;1.52;;;;;;;;;;5033385;28;20109;-48
2022/05/13 13:09:47;;;;;;;4.30;2.22;;;;;;;;;;5033641;28;20033;-48
2022/05/13 13:12:16;;;;;;;5.22;2.30;;;;;;;;;;5033085;28;20572;-48
2022/05/13 13:14:48;;;;;;;3.42;1.75;;;;;;;;;;5033414;28;20104;-52
2022/05/13 13:17:33;;;;;;;6.32;2.47;;;;;;;;;;5033202;28;20031;-49
2022/05/13 13:20:01;;;;;;;5.70;1.75;;;;;;;;;;5033036;28;20060;-49
2022/05/13 13:22:30;;;;;;;4.28;2.10;;;;;;;;;;5033293;28;20053;-50
2022/05/13 13:24:57;;;;;;;3.00;2.05;;;;;;;;;;5032416;28;20166;-49
2022/05/13 13:27:25;;;;;;;4.43;1.85;;;;;;;;;;5034036;28;20474;-48
2022/05/13 13:29:51;;;;;;;5.38;2.20;;;;;;;;;;5033662;28;20041;-56
2022/05/13 13:32:21;;;;;;;4.13;2.10;;;;;;;;;;5032149;28;20061;-49
2022/05/13 13:34:53;;;;;;;5.43;1.70;;;;;;;;;;5033192;28;20040;-50
2022/05/13 13:37:21;;;;;;;5.13;1.92;;;;;;;;;;5032949;28;20485;-49
2022/05/13 13:39:47;;;;;;;4.53;2.20;;;;;;;;;;5032989;28;20072;-49
2022/05/13 13:42:15;;;;;;;4.75;1.80;;;;;;;;;;5031642;28;20018;-49
2022/05/13 13:44:42;;;;;;;2.95;1.42;;;;;;;;;;5033264;28;20026;-49
2022/05/13 13:47:28;;;;;;;6.40;2.17;;;;;;;;;;5032482;28;20109;-50
2022/05/13 13:49:55;;;;;;;3.45;2.33;;;;;;;;;;5032727;28;20072;-56
2022/05/13 13:52:41;;;;;;;4.63;2.20;;;;;;;;;;5032916;28;20038;-51
2022/05/13 13:55:10;;;;;;;4.45;1.95;;;;;;;;;;5029072;28;20053;-49
2022/05/13 13:57:53;;;;;;;2.97;1.70;;;;;;;;;;5033179;28;20044;-53
2022/05/13 14:00:24;;;;;;;5.72;2.63;;;;;;;;;;5032584;28;20096;-49
2022/05/13 14:03:00;;;;;;;2.38;1.83;;;;;;;;;;5032960;28;20025;-52
2022/05/13 14:05:31;;;;;;;2.58;1.77;;;;;;;;;;5032703;28;20041;-50
2022/05/13 14:07:57;;;;;;;3.60;1.85;;;;;;;;;;5031509;28;20363;-49
2022/05/13 14:10:35;;;;;;;5.82;1.92;;;;;;;;;;5032610;28;20025;-50
2022/05/13 14:13:04;;;;;;;2.97;1.70;;;;;;;;;;5031896;28;20036;-49
2022/05/13 14:15:32;;;;;;;3.78;1.73;;;;;;;;;;5032385;28;20025;-50
2022/05/13 14:17:58;;;;;;;8.43;2.03;;;;;;;;;;5032067;28;20091;-49
2022/05/13 14:20:34;;;;;;;3.25;1.90;;;;;;;;;;5032597;28;20030;-50
2022/05/13 14:23:10;;;;;;;3.92;1.80;;;;;;;;;;5031424;28;20037;-50
2022/05/13 14:25:49;;;;;;;2.60;1.65;;;;;;;;;;5032172;28;20110;-49
2022/05/13 14:28:16;;;;;;;3.70;1.95;;;;;;;;;;5031223;28;20057;-51
2022/05/13 14:30:44;;;;;;;2.63;1.67;;;;;;;;;;5032081;28;20032;-49
2022/05/13 14:33:10;;;;;;;3.85;1.38;;;;;;;;;;5031540;28;20170;-48
2022/05/13 14:35:36;;;;;;;2.38;1.48;;;;;;;;;;5032268;28;20487;-51
2022/05/13 14:38:06;;;;;;;1.63;1.20;;;;;;;;;;5031621;28;20147;-50
2022/05/13 14:40:34;;;;;;;4.20;1.50;;;;;;;;;;5031747;28;20042;-50
2022/05/13 14:43:02;;;;;;;3.88;1.50;;;;;;;;;;5030869;28;20025;-50
2022/05/13 14:45:28;;;;;;;2.25;1.55;;;;;;;;;;5031803;28;20519;-52
2022/05/13 14:48:13;;;;;;;4.40;1.35;;;;;;;;;;5023491;28;20033;-56
2022/05/13 14:50:40;;;;;;;2.70;1.40;;;;;;;;;;5032119;28;20037;-48
2022/05/13 14:53:17;;;;;;;1.80;1.48;;;;;;;;;;5030912;28;20381;-49
2022/05/13 14:55:48;;;;;;;3.42;2.00;;;;;;;;;;5031362;28;20024;-48
2022/05/13 14:58:20;;;;;;;2.97;1.35;;;;;;;;;;5030956;28;20017;-49
2022/05/13 15:00:47;;;;;;;2.03;1.70;;;;;;;;;;5031459;28;20481;-48
2022/05/13 15:03:14;;;;;;;4.95;1.88;;;;;;;;;;5031035;28;20027;-49
2022/05/13 15:05:44;;;;;;;1.88;1.27;;;;;;;;;;5027328;28;20058;-48
2022/05/13 15:08:29;;;;;;;5.77;2.37;;;;;;;;;;5027013;28;20459;-47
2022/05/13 15:10:55;;;;;;;2.75;1.55;;;;;;;;;;5028349;28;20030;-57
2022/05/13 15:13:25;;;;;;;3.05;1.42;;;;;;;;;;5030579;28;20029;-48
2022/05/13 15:15:52;;;;;;;1.85;1.30;;;;;;;;;;5030351;28;20033;-49
2022/05/13 15:18:18;;;;;;;3.50;1.45;;;;;;;;;;5030934;28;20040;-47
2022/05/13 15:20:45;;;;;;;3.30;1.30;;;;;;;;;;5027888;28;20026;-48
2022/05/13 15:23:11;;;;;;;2.65;1.40;;;;;;;;;;5029970;28;20174;-47
2022/05/13 15:25:47;;;;;;;3.28;1.30;;;;;;;;;;5031175;28;20033;-48
2022/05/13 15:28:14;;;;;;;2.80;1.40;;;;;;;;;;5024680;28;20176;-48